Market Bosworth, United Kingdom
Current Conditions -  °F | °C
As of 10:50 AM on Thursday 27 Nov 2014 (Local Time) from EGNX Reporting Station
Moderate Fog Moderate Fog  
Wind Chill: 46°   Ceiling: 200
Heat Index: 46°   Visibility: 0.5mi
Dew Point: 46°   Wind: 2mph
Humidity: 100%   Direction: 190°S
Pressure: 29.59"   Gusts: NA
Location:  52.62°N, 1.4°W
Report Text: EGNX 271050Z 19002KT 0800 R27/P1500 FG SCT001 OVC002 08/08 Q1002
Loading
Personal Weather Stations






























Interactive Weather Map New forecast layout! Learn more

10-Day Weather Forecast

Advertisements
Track Severe Weather on mobile